Yarrawonga, Victoria

8:13 PM AEST on August 30, 2015 (GMT +1000)
Mulwala NSW | | Change Station
CLOSE
Current Station
Personal Weather Station
Location: Mulwala, NEW SOUTH WALES
Elevation: 443 ft
Nearby Weather Stations

Elev 443 ft 35.99 °S, 146.00 °E | Updated 2 seconds ago

Clear
Clear
48.4 °F
Feels Like 48 °F
N
0.0
Wind Variable Wind from West
Gusts 0.0 mph

Today
High -- | Low -- °F
--% Chance of Precip.
Yesterday
High -- | Low -- °F
Precip. -- in
6:39 AM 5:54 PM
Full, 99% visible
Pressure 30.12 in
Visibility 6.2 miles
Clouds
Windchill 48 °F
Dew Point 42 °F
Humidity 77%
Rainfall 0.00 in
Snow Depth Not available.
UV 0.0 out of 12
Pollen Not available.
Air Quality Not available.
Flu Activity Not available.
METAR YWGT 301000Z AUTO 25006KT 9999 // NCD 09/06 Q1020
Pressure 30.12 in
Visibility 6.2 miles
Clouds
Windchill 48 °F
Dew Point 42 °F
Humidity 77%
Rainfall 0.00 in
Snow Depth Not available.
UV 0.0 out of 12
Pollen Not available.
Air Quality Not available.
Flu Activity Not available.
METAR YWGT 301000Z AUTO 25006KT 9999 // NCD 09/06 Q1020

10-Day Weather Forecast

×

Almanac

Astronomy

Aug. 30, 2015 Rise Set
Actual Time
Civil Twilight
Nautical Twilight
Astronomical Twilight
Moon
Length of Visible Light
Length of Day
Tomorrow will be .
, % of the Moon is Illuminated

Today's Extremes

Country Highs Country Lows

Community

WunderPhotos

Upload Photos

1,850,919 photos uploaded!

WunderBlogs® & News

Nearby

Air Quality

  Air Quality AQ Index Pollutant
Not available.

Snow Depth

Station Depth Elevation

Earthquake Activity

City Distance Mag. Time & Date
Minimum magnitude displayed is 2.5.

Coastal Water Temperatures

Place Temperature

Stations

Nearby Weather Stations

Station Location Temp. Windchill Dew Point Humidity Wind Precip. Elev Updated Type